Portada
METAR-TAF:

METAR-TAF

Aeroports :

Belgrad, Sèrbia

latitud: 44-49N, longitud: 020-17E, altitud: 96 m

Observació

L'informe es va fer fa 5 minuts, a les 14:00 UTC
Vent 6 kt del Est/Nord-Est, variant entre Nord i Est
Temperatura 33°C
Humitat 32%
Pressió 1016 hPa
Visibilitat 10 km o més
sense núvols per sota de 1500 mi sense presència de cumulonimbus.

METAR: LYBE 191400Z 06006KT 350V080 CAVOK 33/14 Q1016 NOSIG

Hora: 16:05 (14:05 UTC)

Pronòstic

L'informe es va fer fa 3 hores i 5 minuts, a les 11:00 UTC
Pronòstic vàlid del 19 a les 12 UTC al 20 a les 12 UTC
Vent 7 kt del Nord/Nord-Est
Visibilitat 10 km o més
sense núvols per sota de 1500 mi sense presència de cumulonimbus.
Temporalment
l' 20 a les 03 UTC al 20 a les 05 UTC
Visibilitat: 4000 m
boirina

TAF: LYBE 191100Z 1912/2012 03007KT CAVOK TX33/1913Z TN17/2003Z TEMPO 2003/2005 4000 BR

Observacions i pronòstics meteorològics de més de 4000 aeroports (METAR i TAF).

Les estacions disponibles són els punts grocs i vermells al mapa.

Posi el ratolí al punt desitjat per veure el nom de l'estació.

Feu clic per veure les observacions i els pronòstics meteorològics.

Per canviar el mapa: feu clic els botons verds amb una creu de color negre per apropar; al botó verd amb un guió per allunyar la imatge; o en les fletxes verdes per a mapes adjacents.


METAR-TAF: